Time;durP1;ratioP1;P1;durP2;ratioP2;P2;SDS_P1;SDS_P2;PMS_P1;PMS_P2;Temp;Humidity;BMP_temperature;BMP_pressure;BME280_temperature;BME280_humidity;BME280_pressure;Samples;Min_cycle;Max_cycle;Signal;HPM_P1;HPM_P2
2021/12/24 00:01:39;;;;;;;;;38.50;35.50;;;;;;;;5095011;27;46214;-51
2021/12/24 00:04:05;;;;;;;;;38.00;30.25;;;;;;;;5094225;27;45455;-49
2021/12/24 00:06:30;;;;;;;;;41.50;37.75;;;;;;;;5094837;27;45451;-50
2021/12/24 00:08:55;;;;;;;;;41.50;37.00;;;;;;;;5095681;27;45630;-51
2021/12/24 00:11:21;;;;;;;;;38.50;33.50;;;;;;;;5095768;27;45378;-52
2021/12/24 00:13:48;;;;;;;;;39.50;36.50;;;;;;;;5096052;27;45396;-52
2021/12/24 00:18:48;;;;;;;;;35.00;30.50;;;;;;;;5094314;27;45606;-53
2021/12/24 00:35:15;;;;;;;;;37.50;36.75;;;;;;;;5078930;28;45456;-51
2021/12/24 00:37:42;;;;;;;;;43.50;36.75;;;;;;;;5084396;27;45409;-50
2021/12/24 00:40:18;;;;;;;;;40.25;37.00;;;;;;;;5097933;27;45290;-49
2021/12/24 00:42:45;;;;;;;;;36.25;35.00;;;;;;;;5099019;27;45353;-48
2021/12/24 00:45:11;;;;;;;;;33.00;33.00;;;;;;;;5098840;27;45305;-51
2021/12/24 00:47:36;;;;;;;;;36.25;34.00;;;;;;;;5098103;27;45651;-50
2021/12/24 00:50:07;;;;;;;;;36.00;32.25;;;;;;;;5098914;27;45578;-48
2021/12/24 00:52:48;;;;;;;;;37.25;36.50;;;;;;;;5097602;27;46287;-49
2021/12/24 00:55:18;;;;;;;;;36.00;35.25;;;;;;;;5098590;27;45614;-51
2021/12/24 00:57:47;;;;;;;;;39.50;34.75;;;;;;;;5097960;27;45541;-49
2021/12/24 01:00:15;;;;;;;;;33.75;33.50;;;;;;;;5098739;27;45436;-49
2021/12/24 01:02:41;;;;;;;;;35.50;35.00;;;;;;;;5099005;27;46140;-49
2021/12/24 01:05:06;;;;;;;;;36.25;33.25;;;;;;;;5098519;27;45408;-49
2021/12/24 01:07:32;;;;;;;;;34.25;33.25;;;;;;;;5099127;27;45334;-50
2021/12/24 01:09:57;;;;;;;;;35.75;34.00;;;;;;;;5098880;27;45263;-49
2021/12/24 01:12:23;;;;;;;;;38.00;34.75;;;;;;;;5098152;27;45438;-49
2021/12/24 01:14:49;;;;;;;;;40.00;36.00;;;;;;;;5098578;27;45285;-51
2021/12/24 01:17:32;;;;;;;;;33.25;32.75;;;;;;;;5097561;27;45520;-48
2021/12/24 01:20:04;;;;;;;;;33.75;30.25;;;;;;;;5098159;27;45364;-49
2021/12/24 01:28:13;;;;;;;;;44.75;37.25;;;;;;;;5098139;27;45319;-47
2021/12/24 01:43:27;;;;;;;;;40.50;36.00;;;;;;;;5097206;27;45343;-46
2021/12/24 01:45:53;;;;;;;;;37.50;36.00;;;;;;;;5096964;27;45725;-51
2021/12/24 01:48:19;;;;;;;;;37.50;35.25;;;;;;;;5097923;27;45352;-48
2021/12/24 01:50:46;;;;;;;;;42.00;36.50;;;;;;;;5097231;27;45302;-48
2021/12/24 01:53:12;;;;;;;;;35.75;33.75;;;;;;;;5097506;27;45447;-51
2021/12/24 01:55:38;;;;;;;;;37.25;32.25;;;;;;;;5097135;27;45410;-49
2021/12/24 01:58:04;;;;;;;;;33.25;30.50;;;;;;;;5098450;27;45432;-47
2021/12/24 02:00:31;;;;;;;;;34.00;33.75;;;;;;;;5097908;27;45468;-51
2021/12/24 02:02:57;;;;;;;;;42.00;37.75;;;;;;;;5096671;27;46366;-48
2021/12/24 02:05:23;;;;;;;;;38.75;34.00;;;;;;;;5097432;27;45412;-49
2021/12/24 02:07:49;;;;;;;;;41.00;37.75;;;;;;;;5096462;27;45451;-49
2021/12/24 02:10:15;;;;;;;;;41.25;37.25;;;;;;;;5097535;27;45657;-50
2021/12/24 02:12:41;;;;;;;;;40.75;38.00;;;;;;;;5097705;27;45394;-51
2021/12/24 02:15:11;;;;;;;;;35.50;32.50;;;;;;;;5096427;27;45384;-47
2021/12/24 02:30:52;;;;;;;;;45.75;39.25;;;;;;;;5096815;27;45359;-50
2021/12/24 02:33:18;;;;;;;;;46.50;38.25;;;;;;;;5096725;27;45545;-50
2021/12/24 02:35:43;;;;;;;;;41.25;37.00;;;;;;;;5097535;27;45485;-49
2021/12/24 02:38:08;;;;;;;;;39.00;37.50;;;;;;;;5097365;27;45353;-48
2021/12/24 02:40:34;;;;;;;;;45.75;36.75;;;;;;;;5097899;27;45282;-50
2021/12/24 02:43:00;;;;;;;;;41.50;33.25;;;;;;;;5097282;27;46293;-49
2021/12/24 02:45:27;;;;;;;;;38.25;36.50;;;;;;;;5097420;27;45366;-47
2021/12/24 02:48:12;;;;;;;;;39.50;36.00;;;;;;;;5096952;27;45218;-48
2021/12/24 02:56:09;;;;;;;;;41.25;37.25;;;;;;;;5096871;27;45295;-52
2021/12/24 02:58:42;;;;;;;;;43.00;37.00;;;;;;;;5097309;27;45301;-50
2021/12/24 03:01:08;;;;;;;;;42.75;37.50;;;;;;;;5096656;27;45471;-49
2021/12/24 03:03:33;;;;;;;;;45.25;39.50;;;;;;;;5096386;27;45976;-50
2021/12/24 03:05:58;;;;;;;;;47.50;41.75;;;;;;;;5097230;27;45324;-48
2021/12/24 03:08:23;;;;;;;;;45.00;40.75;;;;;;;;5097025;27;45484;-49
2021/12/24 03:10:49;;;;;;;;;45.75;40.00;;;;;;;;5095807;27;45432;-49
2021/12/24 03:13:14;;;;;;;;;46.50;39.25;;;;;;;;5096483;27;45337;-47
2021/12/24 03:15:39;;;;;;;;;43.00;39.00;;;;;;;;5096169;27;45194;-50
2021/12/24 03:18:05;;;;;;;;;40.50;37.00;;;;;;;;5097343;27;45376;-47
2021/12/24 03:20:33;;;;;;;;;41.25;39.50;;;;;;;;5096481;27;45526;-48
2021/12/24 03:23:21;;;;;;;;;40.00;36.75;;;;;;;;5095784;27;46202;-50
2021/12/24 03:25:46;;;;;;;;;38.50;36.50;;;;;;;;5090971;27;45476;-52
2021/12/24 03:28:11;;;;;;;;;42.00;37.25;;;;;;;;5092803;27;45416;-47
2021/12/24 03:30:36;;;;;;;;;40.00;37.25;;;;;;;;5094928;27;45502;-47
2021/12/24 03:33:02;;;;;;;;;36.00;34.50;;;;;;;;5095223;27;45423;-49
2021/12/24 03:35:27;;;;;;;;;43.00;37.25;;;;;;;;5096789;27;45535;-50
2021/12/24 03:37:52;;;;;;;;;36.25;35.00;;;;;;;;5096061;27;45436;-50
2021/12/24 03:40:17;;;;;;;;;38.25;35.50;;;;;;;;5096180;27;45577;-49
2021/12/24 03:42:43;;;;;;;;;54.00;44.75;;;;;;;;5095099;27;46353;-51
2021/12/24 03:45:59;;;;;;;;;36.75;36.25;;;;;;;;5095424;27;45542;-51
2021/12/24 03:48:02;;;;;;;;;40.75;38.50;;;;;;;;5085381;27;45496;-51
2021/12/24 03:50:42;;;;;;;;;37.00;34.00;;;;;;;;5094131;27;45508;-51
2021/12/24 03:54:55;;;;;;;;;39.50;37.75;;;;;;;;5094643;27;46547;-52
2021/12/24 03:55:53;;;;;;;;;43.25;36.25;;;;;;;;5091801;27;45451;-50
2021/12/24 03:58:18;;;;;;;;;42.00;37.50;;;;;;;;5095225;27;45305;-51
2021/12/24 04:00:43;;;;;;;;;43.25;36.00;;;;;;;;5096221;27;45484;-54
2021/12/24 04:03:08;;;;;;;;;34.50;32.00;;;;;;;;5095707;27;46136;-56
2021/12/24 04:05:34;;;;;;;;;40.25;36.50;;;;;;;;5095177;27;45723;-50
2021/12/24 04:07:59;;;;;;;;;44.00;38.25;;;;;;;;5096359;27;45487;-53
2021/12/24 04:10:40;;;;;;;;;45.25;38.50;;;;;;;;5099533;27;45288;-47
2021/12/24 04:13:06;;;;;;;;;35.25;33.50;;;;;;;;5099462;27;45395;-49
2021/12/24 04:15:31;;;;;;;;;40.75;38.00;;;;;;;;5099512;27;45310;-48
2021/12/24 04:17:56;;;;;;;;;35.50;32.25;;;;;;;;5099550;27;45223;-51
2021/12/24 04:25:49;;;;;;;;;38.50;34.50;;;;;;;;5099933;27;45274;-51
2021/12/24 04:28:14;;;;;;;;;40.50;37.25;;;;;;;;5099146;27;45483;-48
2021/12/24 04:30:46;;;;;;;;;37.50;36.25;;;;;;;;5099800;27;45202;-47
2021/12/24 04:33:27;;;;;;;;;38.50;34.00;;;;;;;;5098803;27;45514;-51
2021/12/24 04:36:07;;;;;;;;;40.75;37.00;;;;;;;;5079439;27;45267;-50
2021/12/24 04:52:06;;;;;;;;;36.75;34.50;;;;;;;;5099625;27;45323;-50
2021/12/24 05:02:54;;;;;;;;;35.25;33.25;;;;;;;;5078937;28;45398;-52
2021/12/24 05:10:10;;;;;;;;;32.25;30.00;;;;;;;;5099159;27;45329;-49
2021/12/24 05:12:35;;;;;;;;;37.50;35.50;;;;;;;;5098548;27;45568;-49
2021/12/24 05:15:02;;;;;;;;;33.25;31.75;;;;;;;;5098691;27;45428;-51
2021/12/24 05:17:35;;;;;;;;;35.25;33.75;;;;;;;;5098647;27;45389;-47
2021/12/24 05:22:44;;;;;;;;;36.50;31.50;;;;;;;;5098540;27;45448;-49
2021/12/24 05:25:10;;;;;;;;;28.00;26.50;;;;;;;;5097487;27;45328;-50
2021/12/24 05:27:35;;;;;;;;;39.00;34.00;;;;;;;;5098852;27;45340;-47
2021/12/24 05:30:00;;;;;;;;;36.50;30.50;;;;;;;;5099243;27;45504;-49
2021/12/24 05:32:26;;;;;;;;;38.75;36.50;;;;;;;;5098024;27;45451;-47
2021/12/24 05:34:51;;;;;;;;;36.50;30.00;;;;;;;;5097984;27;46148;-47
2021/12/24 05:37:16;;;;;;;;;32.75;31.25;;;;;;;;5099114;27;45376;-50
2021/12/24 05:39:41;;;;;;;;;34.00;32.00;;;;;;;;5098734;27;45609;-47
2021/12/24 05:42:07;;;;;;;;;37.00;33.50;;;;;;;;5098477;27;45362;-47
2021/12/24 05:44:33;;;;;;;;;35.25;32.00;;;;;;;;5097614;27;46319;-49
2021/12/24 05:46:58;;;;;;;;;28.75;25.00;;;;;;;;5096686;27;45481;-51
2021/12/24 05:49:24;;;;;;;;;25.00;24.50;;;;;;;;5098633;27;45247;-52
2021/12/24 05:51:49;;;;;;;;;32.25;29.50;;;;;;;;5096781;27;45428;-50
2021/12/24 05:54:14;;;;;;;;;32.25;31.50;;;;;;;;5098495;27;45652;-48
2021/12/24 05:56:39;;;;;;;;;29.00;28.25;;;;;;;;5097927;27;45286;-49
2021/12/24 05:59:05;;;;;;;;;32.25;31.50;;;;;;;;5098525;27;45212;-51
2021/12/24 06:01:30;;;;;;;;;32.50;31.00;;;;;;;;5097703;27;45182;-50
2021/12/24 06:03:56;;;;;;;;;34.50;27.50;;;;;;;;5098030;27;46362;-51
2021/12/24 06:06:21;;;;;;;;;33.25;33.00;;;;;;;;5097729;27;45323;-47
2021/12/24 06:08:46;;;;;;;;;31.50;28.75;;;;;;;;5098193;27;45246;-47
2021/12/24 06:11:12;;;;;;;;;33.00;32.75;;;;;;;;5097694;27;45148;-49
2021/12/24 06:13:37;;;;;;;;;37.25;34.00;;;;;;;;5097891;27;45454;-50
2021/12/24 06:16:05;;;;;;;;;32.50;32.25;;;;;;;;5097985;27;45325;-46
2021/12/24 06:18:30;;;;;;;;;35.50;31.25;;;;;;;;5097455;27;45358;-49
2021/12/24 06:20:58;;;;;;;;;35.75;31.25;;;;;;;;5097882;27;45318;-49
2021/12/24 06:23:24;;;;;;;;;32.00;29.75;;;;;;;;5097529;27;46148;-49
2021/12/24 06:25:51;;;;;;;;;29.25;28.75;;;;;;;;5096299;27;45614;-50
2021/12/24 06:28:16;;;;;;;;;29.00;28.75;;;;;;;;5097616;27;45372;-47
2021/12/24 06:30:41;;;;;;;;;29.50;29.50;;;;;;;;5097160;27;45476;-49
2021/12/24 06:33:07;;;;;;;;;33.25;28.25;;;;;;;;5097507;27;45550;-47
2021/12/24 06:35:32;;;;;;;;;36.75;32.00;;;;;;;;5097527;27;45223;-50
2021/12/24 06:37:58;;;;;;;;;27.00;25.75;;;;;;;;5098104;27;45366;-49
2021/12/24 06:40:23;;;;;;;;;35.00;28.75;;;;;;;;5097364;27;45341;-48
2021/12/24 06:42:49;;;;;;;;;27.75;22.75;;;;;;;;5097723;27;45240;-50
2021/12/24 06:45:19;;;;;;;;;31.25;26.50;;;;;;;;5097112;27;45446;-50
2021/12/24 06:47:44;;;;;;;;;24.25;23.50;;;;;;;;5096959;27;45386;-50
2021/12/24 06:50:09;;;;;;;;;28.75;26.75;;;;;;;;5097118;27;45202;-47
2021/12/24 06:52:34;;;;;;;;;34.25;32.25;;;;;;;;5097566;27;45590;-48
2021/12/24 06:54:59;;;;;;;;;27.50;24.50;;;;;;;;5097702;27;45228;-52
2021/12/24 06:57:25;;;;;;;;;34.75;32.00;;;;;;;;5095900;27;45420;-48
2021/12/24 06:59:51;;;;;;;;;28.25;26.75;;;;;;;;5097044;27;45410;-50
2021/12/24 07:02:16;;;;;;;;;31.50;29.00;;;;;;;;5096411;27;45436;-47
2021/12/24 07:04:41;;;;;;;;;31.75;29.00;;;;;;;;5096292;27;45492;-52
2021/12/24 07:07:06;;;;;;;;;31.75;26.00;;;;;;;;5096865;27;45449;-48
2021/12/24 07:09:31;;;;;;;;;25.25;22.25;;;;;;;;5097222;27;45564;-49
2021/12/24 07:11:57;;;;;;;;;17.25;17.25;;;;;;;;5095179;27;45367;-48
2021/12/24 07:14:25;;;;;;;;;24.00;22.75;;;;;;;;5096956;27;45509;-47
2021/12/24 07:16:50;;;;;;;;;22.25;20.25;;;;;;;;5095921;27;45463;-49
2021/12/24 07:19:16;;;;;;;;;22.50;20.50;;;;;;;;5095191;27;45614;-50
2021/12/24 07:21:41;;;;;;;;;23.75;22.25;;;;;;;;5096097;27;45498;-49
2021/12/24 07:24:07;;;;;;;;;23.00;19.50;;;;;;;;5095708;27;45460;-51
2021/12/24 07:26:32;;;;;;;;;22.75;20.25;;;;;;;;5097475;27;45309;-49
2021/12/24 07:28:58;;;;;;;;;22.25;20.00;;;;;;;;5096681;27;45499;-47
2021/12/24 07:31:23;;;;;;;;;23.00;18.00;;;;;;;;5096172;27;46220;-48
2021/12/24 07:33:48;;;;;;;;;22.50;21.25;;;;;;;;5095933;27;45539;-46
2021/12/24 07:36:13;;;;;;;;;19.00;19.00;;;;;;;;5096933;27;45214;-47
2021/12/24 07:38:39;;;;;;;;;17.00;17.00;;;;;;;;5097182;27;45165;-49
2021/12/24 07:41:04;;;;;;;;;16.75;16.00;;;;;;;;5097105;27;45495;-50
2021/12/24 07:43:30;;;;;;;;;28.00;21.25;;;;;;;;5095742;27;45233;-47
2021/12/24 07:45:55;;;;;;;;;17.50;16.75;;;;;;;;5096127;27;45219;-50
2021/12/24 07:48:28;;;;;;;;;19.75;16.75;;;;;;;;5097112;27;45614;-49
2021/12/24 07:53:19;;;;;;;;;18.00;16.25;;;;;;;;5096958;27;45310;-51
2021/12/24 07:55:45;;;;;;;;;15.25;15.25;;;;;;;;5096538;27;45396;-49
2021/12/24 07:58:10;;;;;;;;;20.50;16.25;;;;;;;;5096346;27;45286;-47
2021/12/24 08:00:37;;;;;;;;;20.25;17.75;;;;;;;;5096072;27;46200;-47
2021/12/24 08:03:03;;;;;;;;;17.25;17.25;;;;;;;;5096199;27;45455;-48
2021/12/24 08:05:29;;;;;;;;;21.50;19.50;;;;;;;;5096770;27;45420;-47
2021/12/24 08:07:54;;;;;;;;;25.50;21.50;;;;;;;;5096038;27;45603;-50
2021/12/24 08:10:20;;;;;;;;;17.25;16.75;;;;;;;;5096570;27;46311;-46
2021/12/24 08:12:46;;;;;;;;;18.25;18.00;;;;;;;;5095116;27;45369;-46
2021/12/24 08:15:11;;;;;;;;;19.50;18.50;;;;;;;;5096675;27;45388;-49
2021/12/24 08:17:36;;;;;;;;;18.00;16.75;;;;;;;;5096545;27;45538;-49
2021/12/24 08:20:03;;;;;;;;;16.75;16.75;;;;;;;;5095995;27;46261;-48
2021/12/24 08:22:28;;;;;;;;;15.75;13.75;;;;;;;;5096201;27;45306;-47
2021/12/24 08:24:53;;;;;;;;;19.50;17.50;;;;;;;;5096544;27;45241;-49
2021/12/24 08:27:21;;;;;;;;;17.25;17.00;;;;;;;;5096672;27;45219;-46
2021/12/24 08:29:46;;;;;;;;;18.75;17.50;;;;;;;;5095737;27;45328;-48
2021/12/24 08:32:11;;;;;;;;;13.75;13.25;;;;;;;;5095171;27;45894;-48
2021/12/24 08:34:38;;;;;;;;;18.00;15.00;;;;;;;;5096468;27;45456;-48
2021/12/24 08:37:04;;;;;;;;;23.00;20.75;;;;;;;;5095586;27;45454;-51
2021/12/24 08:39:29;;;;;;;;;19.00;19.00;;;;;;;;5095471;27;46101;-52
2021/12/24 08:41:54;;;;;;;;;19.25;17.75;;;;;;;;5095372;27;45435;-47
2021/12/24 08:44:25;;;;;;;;;20.25;19.00;;;;;;;;5095758;27;45324;-47
2021/12/24 08:46:50;;;;;;;;;18.00;16.25;;;;;;;;5095930;27;45219;-49
2021/12/24 08:49:15;;;;;;;;;17.00;15.25;;;;;;;;5096066;27;46078;-46
2021/12/24 08:51:40;;;;;;;;;17.75;17.75;;;;;;;;5095125;27;45533;-47
2021/12/24 08:54:05;;;;;;;;;17.25;17.25;;;;;;;;5097122;27;45234;-49
2021/12/24 08:56:31;;;;;;;;;13.75;13.75;;;;;;;;5099673;27;45218;-46
2021/12/24 08:58:56;;;;;;;;;21.00;21.00;;;;;;;;5099054;27;46252;-48
2021/12/24 09:01:21;;;;;;;;;22.50;21.25;;;;;;;;5098405;27;45302;-51
2021/12/24 09:03:47;;;;;;;;;20.50;19.00;;;;;;;;5098659;27;45218;-49
2021/12/24 09:06:12;;;;;;;;;22.00;18.25;;;;;;;;5099641;27;45591;-51
2021/12/24 09:08:42;;;;;;;;;21.75;18.50;;;;;;;;5098649;27;45387;-50
2021/12/24 09:11:07;;;;;;;;;18.50;17.00;;;;;;;;5097581;27;45500;-51
2021/12/24 09:13:32;;;;;;;;;22.50;22.50;;;;;;;;5098640;27;45486;-50
2021/12/24 09:15:57;;;;;;;;;25.75;23.25;;;;;;;;5098555;27;45365;-49
2021/12/24 09:18:23;;;;;;;;;21.25;21.25;;;;;;;;5099063;27;45394;-50
2021/12/24 09:20:48;;;;;;;;;28.00;23.25;;;;;;;;5098480;27;45417;-47
2021/12/24 09:23:13;;;;;;;;;22.50;19.25;;;;;;;;5099009;27;45368;-49
2021/12/24 09:25:40;;;;;;;;;18.75;17.50;;;;;;;;5098202;27;45554;-48
2021/12/24 09:28:06;;;;;;;;;24.50;21.50;;;;;;;;5097970;27;45533;-51
2021/12/24 09:30:32;;;;;;;;;18.75;16.50;;;;;;;;5098543;27;45330;-48
2021/12/24 09:32:57;;;;;;;;;19.25;17.50;;;;;;;;5098049;27;45316;-50
2021/12/24 09:35:24;;;;;;;;;24.75;21.50;;;;;;;;5098080;27;45211;-52
2021/12/24 09:37:49;;;;;;;;;24.00;23.50;;;;;;;;5098215;27;46119;-52
2021/12/24 09:40:15;;;;;;;;;19.00;18.25;;;;;;;;5098751;27;45297;-49
2021/12/24 09:42:41;;;;;;;;;21.25;20.00;;;;;;;;5098058;27;45309;-47
2021/12/24 09:45:07;;;;;;;;;20.25;19.00;;;;;;;;5097281;27;45375;-52
2021/12/24 09:47:32;;;;;;;;;17.75;15.25;;;;;;;;5098185;27;46238;-48
2021/12/24 09:49:57;;;;;;;;;20.75;19.25;;;;;;;;5098628;27;45294;-51
2021/12/24 09:52:23;;;;;;;;;18.00;14.75;;;;;;;;5098194;27;45528;-47
2021/12/24 09:54:48;;;;;;;;;18.00;18.00;;;;;;;;5098515;27;45198;-47
2021/12/24 09:57:14;;;;;;;;;20.50;18.25;;;;;;;;5097963;27;46279;-50
2021/12/24 09:59:40;;;;;;;;;17.00;17.00;;;;;;;;5097903;27;45286;-49
2021/12/24 10:02:15;;;;;;;;;24.25;20.25;;;;;;;;5097754;27;45349;-49
2021/12/24 10:04:41;;;;;;;;;28.50;23.25;;;;;;;;5098034;27;45256;-50
2021/12/24 10:07:07;;;;;;;;;22.25;18.50;;;;;;;;5096168;27;46095;-49
2021/12/24 10:09:34;;;;;;;;;21.25;18.00;;;;;;;;5097058;27;45230;-51
2021/12/24 10:12:00;;;;;;;;;21.75;21.25;;;;;;;;5098128;27;45302;-49
2021/12/24 10:14:39;;;;;;;;;21.25;20.25;;;;;;;;5098202;27;45359;-50
2021/12/24 10:17:12;;;;;;;;;22.25;19.50;;;;;;;;5097413;27;45357;-48
2021/12/24 10:19:44;;;;;;;;;22.50;19.50;;;;;;;;5097430;27;45407;-48
2021/12/24 10:22:11;;;;;;;;;18.75;17.00;;;;;;;;5097018;27;45513;-51
2021/12/24 10:24:37;;;;;;;;;18.50;18.50;;;;;;;;5097263;27;45458;-51
2021/12/24 10:27:02;;;;;;;;;21.00;20.50;;;;;;;;5098001;27;45376;-50
2021/12/24 10:29:46;;;;;;;;;19.75;14.75;;;;;;;;5097545;27;45447;-47
2021/12/24 10:32:12;;;;;;;;;24.00;21.50;;;;;;;;5096762;27;45465;-47
2021/12/24 10:34:38;;;;;;;;;19.25;18.75;;;;;;;;5097676;27;45529;-47
2021/12/24 10:37:05;;;;;;;;;19.25;19.25;;;;;;;;5097483;27;45404;-46
2021/12/24 10:39:32;;;;;;;;;19.50;18.75;;;;;;;;5096326;27;45189;-51
2021/12/24 10:41:58;;;;;;;;;20.75;19.00;;;;;;;;5096300;27;45514;-46
2021/12/24 10:44:25;;;;;;;;;16.50;15.50;;;;;;;;5096310;27;45523;-47
2021/12/24 10:47:02;;;;;;;;;19.50;19.25;;;;;;;;5096358;27;45525;-50
2021/12/24 10:49:48;;;;;;;;;20.00;20.00;;;;;;;;5093861;27;45459;-49
2021/12/24 10:54:49;;;;;;;;;19.25;19.00;;;;;;;;5097552;27;45323;-47
2021/12/24 10:57:19;;;;;;;;;16.50;16.25;;;;;;;;5096796;27;45460;-49
2021/12/24 10:59:48;;;;;;;;;20.25;18.50;;;;;;;;5096957;27;45364;-48
2021/12/24 11:02:13;;;;;;;;;20.25;17.50;;;;;;;;5097337;27;45269;-47
2021/12/24 11:04:38;;;;;;;;;22.25;18.50;;;;;;;;5096956;27;45526;-48
2021/12/24 11:07:22;;;;;;;;;16.25;16.25;;;;;;;;5097487;27;46246;-49
2021/12/24 11:10:06;;;;;;;;;32.00;27.25;;;;;;;;5096855;27;45438;-49
2021/12/24 11:12:35;;;;;;;;;15.50;15.50;;;;;;;;5096894;27;45342;-49
2021/12/24 11:15:00;;;;;;;;;18.00;16.75;;;;;;;;5096065;27;45616;-50
2021/12/24 11:17:38;;;;;;;;;17.75;13.75;;;;;;;;5094902;27;45439;-50
2021/12/24 11:20:08;;;;;;;;;16.50;15.25;;;;;;;;5076601;28;45454;-49
2021/12/24 11:22:48;;;;;;;;;16.50;15.25;;;;;;;;5086034;27;45227;-49
2021/12/24 11:25:13;;;;;;;;;20.50;16.25;;;;;;;;5095313;27;45574;-50
2021/12/24 11:27:38;;;;;;;;;19.50;19.00;;;;;;;;5096677;27;45358;-48
2021/12/24 11:30:04;;;;;;;;;18.00;15.75;;;;;;;;5095829;27;45281;-52
2021/12/24 11:32:29;;;;;;;;;18.00;13.25;;;;;;;;5097101;27;45805;-47
2021/12/24 11:34:54;;;;;;;;;16.50;15.00;;;;;;;;5097134;27;45279;-51
2021/12/24 11:37:19;;;;;;;;;28.75;23.50;;;;;;;;5094783;27;48405;-47
2021/12/24 11:39:45;;;;;;;;;16.25;14.00;;;;;;;;5096648;27;45336;-48
2021/12/24 11:42:13;;;;;;;;;23.75;22.00;;;;;;;;5095566;27;45471;-48
2021/12/24 11:44:38;;;;;;;;;16.00;14.75;;;;;;;;5095485;27;45464;-48
2021/12/24 11:47:04;;;;;;;;;20.25;20.25;;;;;;;;5095677;27;46268;-48
2021/12/24 11:49:29;;;;;;;;;17.00;14.33;;;;;;;;5096905;27;45172;-47
2021/12/24 11:51:55;;;;;;;;;18.75;18.25;;;;;;;;5096952;27;45233;-48
2021/12/24 11:54:20;;;;;;;;;18.25;18.25;;;;;;;;5096472;27;45310;-49
2021/12/24 11:56:47;;;;;;;;;19.50;18.50;;;;;;;;5096587;27;45387;-50
2021/12/24 11:59:12;;;;;;;;;15.50;14.75;;;;;;;;5095667;27;45462;-47
2021/12/24 12:01:41;;;;;;;;;18.75;15.25;;;;;;;;5096457;27;45571;-47
2021/12/24 12:04:14;;;;;;;;;20.00;18.25;;;;;;;;5095611;27;45449;-46
2021/12/24 12:06:40;;;;;;;;;20.25;19.00;;;;;;;;5076265;27;45425;-47
2021/12/24 12:09:08;;;;;;;;;13.00;10.00;;;;;;;;5074103;28;45320;-50
2021/12/24 12:11:35;;;;;;;;;21.00;19.25;;;;;;;;5076039;27;45340;-48
2021/12/24 12:14:17;;;;;;;;;20.00;19.00;;;;;;;;5092486;27;45461;-48
2021/12/24 12:16:42;;;;;;;;;16.00;16.00;;;;;;;;5095697;27;45989;-46
2021/12/24 12:19:16;;;;;;;;;20.75;19.00;;;;;;;;5094713;27;45520;-47
2021/12/24 12:22:10;;;;;;;;;17.50;17.50;;;;;;;;5095862;27;45403;-48
2021/12/24 12:27:17;;;;;;;;;22.25;21.00;;;;;;;;5095807;27;46061;-47
2021/12/24 12:29:44;;;;;;;;;14.50;14.50;;;;;;;;5098342;27;45350;-46
2021/12/24 12:32:12;;;;;;;;;16.75;14.75;;;;;;;;5095756;27;45287;-47
2021/12/24 12:34:41;;;;;;;;;21.50;19.00;;;;;;;;5098751;27;45665;-47
2021/12/24 12:37:17;;;;;;;;;22.75;19.75;;;;;;;;5098914;27;46228;-49
2021/12/24 12:39:43;;;;;;;;;20.50;18.00;;;;;;;;5098969;27;45379;-52
2021/12/24 12:42:08;;;;;;;;;19.00;17.50;;;;;;;;5098919;27;45485;-50
2021/12/24 12:44:35;;;;;;;;;25.00;24.00;;;;;;;;5098894;27;45377;-47
2021/12/24 12:47:10;;;;;;;;;21.75;18.25;;;;;;;;5099287;27;45539;-47
2021/12/24 12:49:36;;;;;;;;;22.50;20.00;;;;;;;;5098999;27;45494;-52
2021/12/24 12:52:22;;;;;;;;;19.75;19.25;;;;;;;;5099665;27;45317;-52
2021/12/24 12:54:49;;;;;;;;;19.00;19.00;;;;;;;;5098972;27;45246;-48
2021/12/24 12:57:19;;;;;;;;;21.33;18.00;;;;;;;;5098625;27;46282;-47
2021/12/24 13:00:03;;;;;;;;;39.00;33.00;;;;;;;;5099173;27;45444;-49
2021/12/24 13:02:47;;;;;;;;;25.75;24.50;;;;;;;;5098955;27;45501;-49
2021/12/24 13:05:13;;;;;;;;;23.50;20.25;;;;;;;;5097937;27;45628;-52
2021/12/24 13:07:38;;;;;;;;;21.00;20.00;;;;;;;;5098322;27;45352;-52
2021/12/24 13:10:03;;;;;;;;;18.67;18.67;;;;;;;;5097814;27;45270;-52
2021/12/24 13:12:29;;;;;;;;;18.00;18.00;;;;;;;;5081241;27;45551;-52
2021/12/24 13:14:58;;;;;;;;;18.00;16.00;;;;;;;;5078274;27;45259;-53
2021/12/24 13:17:30;;;;;;;;;23.50;21.00;;;;;;;;5078572;27;46372;-51
2021/12/24 13:20:09;;;;;;;;;18.00;18.00;;;;;;;;5078202;27;45570;-52
2021/12/24 13:22:36;;;;;;;;;22.75;22.25;;;;;;;;5078707;27;45290;-51
2021/12/24 13:25:10;;;;;;;;;28.00;21.00;;;;;;;;5077538;27;45505;-49
2021/12/24 13:27:39;;;;;;;;;21.00;21.00;;;;;;;;5077310;27;45280;-51
2021/12/24 13:30:04;;;;;;;;;24.00;21.25;;;;;;;;5078491;27;45435;-50
2021/12/24 13:32:29;;;;;;;;;19.67;19.67;;;;;;;;5078185;28;45322;-51
2021/12/24 13:34:55;;;;;;;;;23.67;18.33;;;;;;;;5078344;28;45539;-49
2021/12/24 13:37:20;;;;;;;;;20.75;19.75;;;;;;;;5077558;27;45396;-54
2021/12/24 13:39:51;;;;;;;;;16.33;16.00;;;;;;;;5078154;27;45501;-50
2021/12/24 13:42:17;;;;;;;;;21.25;17.50;;;;;;;;5077489;27;45337;-50
2021/12/24 13:44:43;;;;;;;;;20.75;20.75;;;;;;;;5077217;27;45486;-50
2021/12/24 13:47:10;;;;;;;;;21.75;20.25;;;;;;;;5078294;27;45880;-48
2021/12/24 13:50:01;;;;;;;;;18.00;18.00;;;;;;;;5077602;27;45404;-50
2021/12/24 13:55:18;;;;;;;;;23.50;22.00;;;;;;;;5078420;28;45316;-52
2021/12/24 13:58:04;;;;;;;;;31.75;28.00;;;;;;;;5077713;27;45319;-54
2021/12/24 14:00:32;;;;;;;;;23.50;22.50;;;;;;;;5074828;28;45314;-52
2021/12/24 14:03:24;;;;;;;;;24.50;22.50;;;;;;;;5077751;27;45341;-53
2021/12/24 14:05:50;;;;;;;;;23.75;23.75;;;;;;;;5076809;28;45418;-49
2021/12/24 14:08:17;;;;;;;;;26.75;22.50;;;;;;;;5077861;27;46689;-49
2021/12/24 14:10:43;;;;;;;;;50.75;43.25;;;;;;;;5078960;27;45216;-49
2021/12/24 14:13:20;;;;;;;;;30.00;23.25;;;;;;;;5098224;27;45240;-51
2021/12/24 14:16:03;;;;;;;;;28.75;24.00;;;;;;;;5096964;27;45370;-51
2021/12/24 14:24:05;;;;;;;;;23.75;22.25;;;;;;;;5097983;27;45232;-49
2021/12/24 14:26:34;;;;;;;;;34.00;30.00;;;;;;;;5098238;27;45246;-52
2021/12/24 14:29:05;;;;;;;;;28.25;25.75;;;;;;;;5097761;27;45543;-49
2021/12/24 14:31:30;;;;;;;;;25.00;21.50;;;;;;;;5098029;27;45166;-51
2021/12/24 14:33:55;;;;;;;;;31.25;27.50;;;;;;;;5097493;27;45148;-51
2021/12/24 14:36:21;;;;;;;;;32.50;29.00;;;;;;;;5098111;27;45271;-50
2021/12/24 14:38:46;;;;;;;;;22.67;22.00;;;;;;;;5097711;27;46329;-50
2021/12/24 14:41:16;;;;;;;;;18.00;17.67;;;;;;;;5096773;27;45290;-52
2021/12/24 14:43:42;;;;;;;;;25.50;25.50;;;;;;;;5097250;27;45500;-48
2021/12/24 14:46:08;;;;;;;;;28.25;26.50;;;;;;;;5097736;27;45534;-51
2021/12/24 14:48:35;;;;;;;;;29.50;25.25;;;;;;;;5097728;27;45370;-49
2021/12/24 14:51:07;;;;;;;;;22.50;20.75;;;;;;;;5097638;27;45177;-48
2021/12/24 14:53:32;;;;;;;;;29.00;24.25;;;;;;;;5097479;27;45436;-48
2021/12/24 14:55:59;;;;;;;;;20.50;20.50;;;;;;;;5097014;27;45452;-51
2021/12/24 14:58:27;;;;;;;;;22.00;20.50;;;;;;;;5097331;27;45404;-53
2021/12/24 15:00:53;;;;;;;;;27.00;26.00;;;;;;;;5097452;27;45422;-48
2021/12/24 15:03:20;;;;;;;;;25.00;20.25;;;;;;;;5097504;27;45280;-49
2021/12/24 15:05:47;;;;;;;;;22.00;20.75;;;;;;;;5096847;27;45334;-50
2021/12/24 15:08:15;;;;;;;;;26.00;21.25;;;;;;;;5097232;27;46312;-48
2021/12/24 15:10:40;;;;;;;;;23.00;21.25;;;;;;;;5096959;27;45289;-52
2021/12/24 15:13:15;;;;;;;;;27.00;24.50;;;;;;;;5097089;27;45297;-52
2021/12/24 15:15:46;;;;;;;;;26.25;25.00;;;;;;;;5097406;27;45370;-51
2021/12/24 15:18:12;;;;;;;;;27.50;24.25;;;;;;;;5096776;27;47242;-50
2021/12/24 15:20:37;;;;;;;;;25.75;24.50;;;;;;;;5097139;27;45491;-49
2021/12/24 15:23:02;;;;;;;;;27.50;27.50;;;;;;;;5097412;27;45408;-49
2021/12/24 15:25:27;;;;;;;;;28.25;25.00;;;;;;;;5097200;27;45517;-51
2021/12/24 15:27:55;;;;;;;;;25.00;24.25;;;;;;;;5096505;27;45335;-50
2021/12/24 15:30:20;;;;;;;;;30.50;30.50;;;;;;;;5097236;27;45168;-50
2021/12/24 15:32:45;;;;;;;;;28.00;25.25;;;;;;;;5097186;27;45328;-49
2021/12/24 15:35:11;;;;;;;;;27.25;24.75;;;;;;;;5097275;27;45355;-52
2021/12/24 15:37:36;;;;;;;;;23.50;22.25;;;;;;;;5096884;27;46337;-49
2021/12/24 15:40:01;;;;;;;;;31.25;25.00;;;;;;;;5096439;27;45365;-50
2021/12/24 15:42:28;;;;;;;;;24.75;24.75;;;;;;;;5096939;27;45376;-50
2021/12/24 15:44:54;;;;;;;;;21.50;20.50;;;;;;;;5096921;27;45549;-52
2021/12/24 15:47:19;;;;;;;;;27.25;26.25;;;;;;;;5096685;27;45856;-51
2021/12/24 15:49:45;;;;;;;;;31.00;28.00;;;;;;;;5096069;27;45379;-51
2021/12/24 15:52:10;;;;;;;;;35.25;33.00;;;;;;;;5097016;27;45396;-52
2021/12/24 15:54:35;;;;;;;;;29.75;26.00;;;;;;;;5097047;27;45532;-49
2021/12/24 15:57:01;;;;;;;;;31.75;26.75;;;;;;;;5096709;27;45825;-48
2021/12/24 15:59:31;;;;;;;;;28.25;26.00;;;;;;;;5096747;27;45454;-49
2021/12/24 16:01:56;;;;;;;;;34.25;28.50;;;;;;;;5095838;27;45237;-48
2021/12/24 16:04:23;;;;;;;;;36.00;30.25;;;;;;;;5098144;27;45604;-51